Terminal Aerodrome Forecast
Issued by NWS

Home | Current Version | Previous Version | Graphics & Text | Print | Product List | Glossary On
Versions: 1 2 3 4 5 6 7 8 9 10 11 12 13 14 15 16 17 18 19 20
704
FTUS43 KICT 300332 AAA
TAFCNU
TAF AMD
KCNU 300332Z 3004/3024 11011KT P6SM VCSH OVC009
     FM301000 20007KT 5SM BR OVC007
     FM301600 24013KT P6SM SCT025
     FM302100 23014KT P6SM SCT110=

USA.gov is the U.S. government's official web portal to all federal, state and local government web resources and services.